Terminal Aerodrome Forecast
Issued by NWS Lake Charles, LA

Home | Current Version | Previous Version | Text Only | Print | Product List | Glossary On
Versions: 1 2 3 4 5 6 7 8 9 10 11 12 13
000
FTUS44 KLCH 070520
TAFAEX
TAF
KAEX 070520Z 0706/0806 14005KT P6SM SCT025 SCT250
      TEMPO 0711/0714 BKN025
     FM071500 15008KT P6SM SCT030 SCT250
     FM071800 16010G15KT P6SM VCSH BKN050
     FM080100 14007KT P6SM SCT035 BKN200=

USA.gov is the U.S. government's official web portal to all federal, state and local government web resources and services.